sensor_id;sensor_type;location;lat;lon;timestamp;temperature;humidity
29031;DHT22;16122;50.236;11.734;2022-11-20T00:00:09;15.50;63.80
29031;DHT22;16122;50.236;11.734;2022-11-20T00:02:36;15.50;63.70
29031;DHT22;16122;50.236;11.734;2022-11-20T00:05:02;15.50;63.70
29031;DHT22;16122;50.236;11.734;2022-11-20T00:07:28;15.50;63.60
29031;DHT22;16122;50.236;11.734;2022-11-20T00:09:54;15.50;63.40
29031;DHT22;16122;50.236;11.734;2022-11-20T00:12:20;15.50;63.40
29031;DHT22;16122;50.236;11.734;2022-11-20T00:14:45;15.50;63.10
29031;DHT22;16122;50.236;11.734;2022-11-20T00:17:11;15.50;62.90
29031;DHT22;16122;50.236;11.734;2022-11-20T00:19:37;15.50;62.80
29031;DHT22;16122;50.236;11.734;2022-11-20T00:22:03;15.50;62.50
29031;DHT22;16122;50.236;11.734;2022-11-20T00:24:29;15.40;62.20
29031;DHT22;16122;50.236;11.734;2022-11-20T00:26:55;15.40;61.90
29031;DHT22;16122;50.236;11.734;2022-11-20T00:29:21;15.40;61.60
29031;DHT22;16122;50.236;11.734;2022-11-20T00:31:46;15.40;61.40
29031;DHT22;16122;50.236;11.734;2022-11-20T00:34:12;15.40;61.30
29031;DHT22;16122;50.236;11.734;2022-11-20T00:36:38;15.40;61.20
29031;DHT22;16122;50.236;11.734;2022-11-20T00:39:04;15.40;61.10
29031;DHT22;16122;50.236;11.734;2022-11-20T00:41:30;15.40;60.80
29031;DHT22;16122;50.236;11.734;2022-11-20T00:43:56;15.40;60.60
29031;DHT22;16122;50.236;11.734;2022-11-20T00:46:24;15.40;60.20
29031;DHT22;16122;50.236;11.734;2022-11-20T00:48:50;15.40;60.20
29031;DHT22;16122;50.236;11.734;2022-11-20T00:51:22;15.40;59.60
29031;DHT22;16122;50.236;11.734;2022-11-20T00:53:49;15.40;59.30
29031;DHT22;16122;50.236;11.734;2022-11-20T00:56:17;15.40;59.00
29031;DHT22;16122;50.236;11.734;2022-11-20T00:58:46;15.40;58.90
29031;DHT22;16122;50.236;11.734;2022-11-20T01:03:41;15.40;58.60
29031;DHT22;16122;50.236;11.734;2022-11-20T01:06:13;15.40;58.50
29031;DHT22;16122;50.236;11.734;2022-11-20T01:08:40;15.40;58.70
29031;DHT22;16122;50.236;11.734;2022-11-20T01:11:09;15.30;58.50
29031;DHT22;16122;50.236;11.734;2022-11-20T01:13:35;15.30;58.90
29031;DHT22;16122;50.236;11.734;2022-11-20T01:16:13;15.30;59.40
29031;DHT22;16122;50.236;11.734;2022-11-20T01:18:41;15.30;59.90
29031;DHT22;16122;50.236;11.734;2022-11-20T01:21:17;15.30;60.60
29031;DHT22;16122;50.236;11.734;2022-11-20T01:23:43;15.30;61.00
29031;DHT22;16122;50.236;11.734;2022-11-20T01:26:12;15.30;61.10
29031;DHT22;16122;50.236;11.734;2022-11-20T01:28:39;15.30;61.10
29031;DHT22;16122;50.236;11.734;2022-11-20T01:31:13;15.30;61.20
29031;DHT22;16122;50.236;11.734;2022-11-20T01:33:39;15.30;61.20
29031;DHT22;16122;50.236;11.734;2022-11-20T01:36:06;15.30;61.20
29031;DHT22;16122;50.236;11.734;2022-11-20T01:38:32;15.30;61.20
29031;DHT22;16122;50.236;11.734;2022-11-20T01:40:58;15.30;62.00
29031;DHT22;16122;50.236;11.734;2022-11-20T01:43:25;15.30;61.20
29031;DHT22;16122;50.236;11.734;2022-11-20T01:48:48;15.30;61.20
29031;DHT22;16122;50.236;11.734;2022-11-20T01:51:29;15.30;61.10
29031;DHT22;16122;50.236;11.734;2022-11-20T01:54:00;15.40;61.30
29031;DHT22;16122;50.236;11.734;2022-11-20T01:56:28;15.30;61.10
29031;DHT22;16122;50.236;11.734;2022-11-20T01:58:58;15.30;61.20
29031;DHT22;16122;50.236;11.734;2022-11-20T02:01:26;15.30;61.20
29031;DHT22;16122;50.236;11.734;2022-11-20T02:03:52;15.30;61.20
29031;DHT22;16122;50.236;11.734;2022-11-20T02:06:28;15.40;61.40
29031;DHT22;16122;50.236;11.734;2022-11-20T02:08:55;15.40;61.30
29031;DHT22;16122;50.236;11.734;2022-11-20T02:11:21;15.40;61.30
29031;DHT22;16122;50.236;11.734;2022-11-20T02:13:48;15.40;61.30
29031;DHT22;16122;50.236;11.734;2022-11-20T02:16:27;15.40;61.30
29031;DHT22;16122;50.236;11.734;2022-11-20T02:18:55;15.40;61.30
29031;DHT22;16122;50.236;11.734;2022-11-20T02:26:28;15.40;61.30
29031;DHT22;16122;50.236;11.734;2022-11-20T02:28:55;15.40;61.20
29031;DHT22;16122;50.236;11.734;2022-11-20T02:31:22;15.40;61.10
29031;DHT22;16122;50.236;11.734;2022-11-20T02:33:53;15.40;61.00
29031;DHT22;16122;50.236;11.734;2022-11-20T02:36:19;15.40;60.70
29031;DHT22;16122;50.236;11.734;2022-11-20T02:38:45;15.40;61.40
29031;DHT22;16122;50.236;11.734;2022-11-20T02:41:11;15.30;60.40
29031;DHT22;16122;50.236;11.734;2022-11-20T02:43:36;15.30;60.30
29031;DHT22;16122;50.236;11.734;2022-11-20T02:46:02;15.30;60.10
29031;DHT22;16122;50.236;11.734;2022-11-20T02:48:28;15.30;59.90
29031;DHT22;16122;50.236;11.734;2022-11-20T02:50:54;15.30;59.90
29031;DHT22;16122;50.236;11.734;2022-11-20T02:53:19;15.30;59.80
29031;DHT22;16122;50.236;11.734;2022-11-20T02:55:45;15.30;59.70
29031;DHT22;16122;50.236;11.734;2022-11-20T02:58:11;15.30;59.50
29031;DHT22;16122;50.236;11.734;2022-11-20T03:00:37;15.30;59.40
29031;DHT22;16122;50.236;11.734;2022-11-20T03:03:03;15.20;59.10
29031;DHT22;16122;50.236;11.734;2022-11-20T03:05:28;15.20;59.10
29031;DHT22;16122;50.236;11.734;2022-11-20T03:07:54;15.20;58.80
29031;DHT22;16122;50.236;11.734;2022-11-20T03:10:20;15.20;58.60
29031;DHT22;16122;50.236;11.734;2022-11-20T03:12:46;15.20;58.60
29031;DHT22;16122;50.236;11.734;2022-11-20T03:15:12;15.20;58.50
29031;DHT22;16122;50.236;11.734;2022-11-20T03:17:37;15.20;58.30
29031;DHT22;16122;50.236;11.734;2022-11-20T03:20:04;15.20;57.90
29031;DHT22;16122;50.236;11.734;2022-11-20T03:22:30;15.20;58.10
29031;DHT22;16122;50.236;11.734;2022-11-20T03:24:56;15.20;58.30
29031;DHT22;16122;50.236;11.734;2022-11-20T03:27:21;15.20;58.10
29031;DHT22;16122;50.236;11.734;2022-11-20T03:29:47;15.30;58.30
29031;DHT22;16122;50.236;11.734;2022-11-20T03:32:13;15.20;58.40
29031;DHT22;16122;50.236;11.734;2022-11-20T03:34:39;15.20;58.40
29031;DHT22;16122;50.236;11.734;2022-11-20T03:37:05;15.20;58.60
29031;DHT22;16122;50.236;11.734;2022-11-20T03:39:30;15.20;58.80
29031;DHT22;16122;50.236;11.734;2022-11-20T03:41:56;15.20;59.00
29031;DHT22;16122;50.236;11.734;2022-11-20T03:44:22;15.10;58.80
29031;DHT22;16122;50.236;11.734;2022-11-20T03:46:48;15.10;59.40
29031;DHT22;16122;50.236;11.734;2022-11-20T03:49:13;15.10;59.70
29031;DHT22;16122;50.236;11.734;2022-11-20T03:51:39;15.20;60.10
29031;DHT22;16122;50.236;11.734;2022-11-20T03:54:07;15.20;60.10
29031;DHT22;16122;50.236;11.734;2022-11-20T03:56:36;15.20;60.10
29031;DHT22;16122;50.236;11.734;2022-11-20T03:59:02;15.20;60.10
29031;DHT22;16122;50.236;11.734;2022-11-20T04:01:31;15.20;60.20
29031;DHT22;16122;50.236;11.734;2022-11-20T04:03:57;15.20;60.30
29031;DHT22;16122;50.236;11.734;2022-11-20T04:06:29;15.30;60.30
29031;DHT22;16122;50.236;11.734;2022-11-20T04:08:57;15.20;60.30
29031;DHT22;16122;50.236;11.734;2022-11-20T04:11:25;15.20;60.40
29031;DHT22;16122;50.236;11.734;2022-11-20T04:13:56;15.20;61.20
29031;DHT22;16122;50.236;11.734;2022-11-20T04:16:24;15.20;60.40
29031;DHT22;16122;50.236;11.734;2022-11-20T04:18:54;15.30;60.50
29031;DHT22;16122;50.236;11.734;2022-11-20T04:21:20;15.20;60.30
29031;DHT22;16122;50.236;11.734;2022-11-20T04:23:46;15.20;60.50
29031;DHT22;16122;50.236;11.734;2022-11-20T04:26:12;15.30;60.60
29031;DHT22;16122;50.236;11.734;2022-11-20T04:28:39;15.30;60.60
29031;DHT22;16122;50.236;11.734;2022-11-20T04:31:19;15.30;60.60
29031;DHT22;16122;50.236;11.734;2022-11-20T04:33:46;15.30;60.60
29031;DHT22;16122;50.236;11.734;2022-11-20T04:36:20;15.30;60.70
29031;DHT22;16122;50.236;11.734;2022-11-20T04:38:49;15.30;60.70
29031;DHT22;16122;50.236;11.734;2022-11-20T04:41:18;15.30;60.70
29031;DHT22;16122;50.236;11.734;2022-11-20T04:43:52;15.30;60.50
29031;DHT22;16122;50.236;11.734;2022-11-20T04:46:20;15.30;60.40
29031;DHT22;16122;50.236;11.734;2022-11-20T04:48:47;15.30;60.30
29031;DHT22;16122;50.236;11.734;2022-11-20T04:51:13;15.20;60.00
29031;DHT22;16122;50.236;11.734;2022-11-20T04:53:39;15.20;59.90
29031;DHT22;16122;50.236;11.734;2022-11-20T04:56:06;15.20;60.00
29031;DHT22;16122;50.236;11.734;2022-11-20T04:58:34;15.30;60.10
29031;DHT22;16122;50.236;11.734;2022-11-20T05:01:15;15.30;60.20
29031;DHT22;16122;50.236;11.734;2022-11-20T05:03:43;15.30;60.10
29031;DHT22;16122;50.236;11.734;2022-11-20T05:06:11;15.30;60.00
29031;DHT22;16122;50.236;11.734;2022-11-20T05:08:38;15.30;60.10
29031;DHT22;16122;50.236;11.734;2022-11-20T05:11:05;15.20;60.00
29031;DHT22;16122;50.236;11.734;2022-11-20T05:13:31;15.30;60.10
29031;DHT22;16122;50.236;11.734;2022-11-20T05:16:06;15.20;60.00
29031;DHT22;16122;50.236;11.734;2022-11-20T05:18:33;15.20;60.10
29031;DHT22;16122;50.236;11.734;2022-11-20T05:20:59;15.20;60.20
29031;DHT22;16122;50.236;11.734;2022-11-20T05:23:27;15.20;60.20
29031;DHT22;16122;50.236;11.734;2022-11-20T05:25:56;15.20;60.30
29031;DHT22;16122;50.236;11.734;2022-11-20T05:28:23;15.20;60.30
29031;DHT22;16122;50.236;11.734;2022-11-20T05:30:49;15.20;60.40
29031;DHT22;16122;50.236;11.734;2022-11-20T05:33:16;15.20;60.50
29031;DHT22;16122;50.236;11.734;2022-11-20T05:35:42;15.20;60.50
29031;DHT22;16122;50.236;11.734;2022-11-20T05:38:08;15.20;60.50
29031;DHT22;16122;50.236;11.734;2022-11-20T05:40:34;15.20;60.50
29031;DHT22;16122;50.236;11.734;2022-11-20T05:43:00;15.20;60.90
29031;DHT22;16122;50.236;11.734;2022-11-20T05:45:26;15.20;60.90
29031;DHT22;16122;50.236;11.734;2022-11-20T05:47:52;15.20;61.10
29031;DHT22;16122;50.236;11.734;2022-11-20T05:50:18;15.20;61.10
29031;DHT22;16122;50.236;11.734;2022-11-20T05:52:44;15.20;61.10
29031;DHT22;16122;50.236;11.734;2022-11-20T05:55:10;15.30;61.10
29031;DHT22;16122;50.236;11.734;2022-11-20T05:57:36;15.20;61.10
29031;DHT22;16122;50.236;11.734;2022-11-20T06:00:03;15.20;61.00
29031;DHT22;16122;50.236;11.734;2022-11-20T06:02:30;15.20;61.10
29031;DHT22;16122;50.236;11.734;2022-11-20T06:04:55;15.20;61.10
29031;DHT22;16122;50.236;11.734;2022-11-20T06:07:21;15.20;60.90
29031;DHT22;16122;50.236;11.734;2022-11-20T06:09:47;15.20;61.00
29031;DHT22;16122;50.236;11.734;2022-11-20T06:12:13;15.20;60.90
29031;DHT22;16122;50.236;11.734;2022-11-20T06:14:39;15.20;60.90
29031;DHT22;16122;50.236;11.734;2022-11-20T06:17:04;15.20;60.90
29031;DHT22;16122;50.236;11.734;2022-11-20T06:19:30;15.20;60.90
29031;DHT22;16122;50.236;11.734;2022-11-20T06:21:56;15.20;61.00
29031;DHT22;16122;50.236;11.734;2022-11-20T06:24:22;15.20;61.00
29031;DHT22;16122;50.236;11.734;2022-11-20T06:26:48;15.20;60.40
29031;DHT22;16122;50.236;11.734;2022-11-20T06:29:14;15.20;60.50
29031;DHT22;16122;50.236;11.734;2022-11-20T06:31:40;15.20;60.30
29031;DHT22;16122;50.236;11.734;2022-11-20T06:34:08;15.20;60.20
29031;DHT22;16122;50.236;11.734;2022-11-20T06:36:34;15.20;60.40
29031;DHT22;16122;50.236;11.734;2022-11-20T06:39:00;15.20;60.30
29031;DHT22;16122;50.236;11.734;2022-11-20T06:41:26;15.20;59.40
29031;DHT22;16122;50.236;11.734;2022-11-20T06:43:53;15.20;59.20
29031;DHT22;16122;50.236;11.734;2022-11-20T06:46:20;15.20;59.10
29031;DHT22;16122;50.236;11.734;2022-11-20T06:48:47;15.20;59.20
29031;DHT22;16122;50.236;11.734;2022-11-20T06:51:13;15.20;59.60
29031;DHT22;16122;50.236;11.734;2022-11-20T06:53:39;15.20;59.90
29031;DHT22;16122;50.236;11.734;2022-11-20T06:56:05;15.30;60.10
29031;DHT22;16122;50.236;11.734;2022-11-20T06:58:33;15.20;60.30
29031;DHT22;16122;50.236;11.734;2022-11-20T07:01:06;15.20;60.30
29031;DHT22;16122;50.236;11.734;2022-11-20T07:03:33;15.20;60.10
29031;DHT22;16122;50.236;11.734;2022-11-20T07:06:00;15.20;60.50
29031;DHT22;16122;50.236;11.734;2022-11-20T07:08:26;15.20;60.70
29031;DHT22;16122;50.236;11.734;2022-11-20T07:10:52;15.20;60.80
29031;DHT22;16122;50.236;11.734;2022-11-20T07:13:18;15.20;60.60
29031;DHT22;16122;50.236;11.734;2022-11-20T07:15:44;15.20;60.70
29031;DHT22;16122;50.236;11.734;2022-11-20T07:18:09;15.20;60.60
29031;DHT22;16122;50.236;11.734;2022-11-20T07:20:36;15.20;61.00
29031;DHT22;16122;50.236;11.734;2022-11-20T07:23:02;15.20;60.80
29031;DHT22;16122;50.236;11.734;2022-11-20T07:25:28;15.20;60.80
29031;DHT22;16122;50.236;11.734;2022-11-20T07:27:58;15.10;60.50
29031;DHT22;16122;50.236;11.734;2022-11-20T07:30:24;15.10;60.80
29031;DHT22;16122;50.236;11.734;2022-11-20T07:32:54;15.10;60.90
29031;DHT22;16122;50.236;11.734;2022-11-20T07:35:21;15.10;60.80
29031;DHT22;16122;50.236;11.734;2022-11-20T07:37:47;15.10;61.20
29031;DHT22;16122;50.236;11.734;2022-11-20T07:40:15;15.10;60.90
29031;DHT22;16122;50.236;11.734;2022-11-20T07:42:51;15.10;61.00
29031;DHT22;16122;50.236;11.734;2022-11-20T07:45:21;15.00;61.20
29031;DHT22;16122;50.236;11.734;2022-11-20T07:47:47;15.00;61.20
29031;DHT22;16122;50.236;11.734;2022-11-20T07:50:14;15.00;61.00
29031;DHT22;16122;50.236;11.734;2022-11-20T07:52:40;15.00;60.90
29031;DHT22;16122;50.236;11.734;2022-11-20T07:55:06;15.00;61.10
29031;DHT22;16122;50.236;11.734;2022-11-20T07:57:32;15.00;60.90
29031;DHT22;16122;50.236;11.734;2022-11-20T07:59:58;15.00;61.10
29031;DHT22;16122;50.236;11.734;2022-11-20T08:02:24;14.90;61.00
29031;DHT22;16122;50.236;11.734;2022-11-20T08:04:51;14.90;60.80
29031;DHT22;16122;50.236;11.734;2022-11-20T08:07:17;14.90;60.80
29031;DHT22;16122;50.236;11.734;2022-11-20T08:09:43;15.00;60.50
29031;DHT22;16122;50.236;11.734;2022-11-20T08:12:17;15.00;60.50
29031;DHT22;16122;50.236;11.734;2022-11-20T08:15:02;15.00;61.00
29031;DHT22;16122;50.236;11.734;2022-11-20T08:17:28;15.00;61.80
29031;DHT22;16122;50.236;11.734;2022-11-20T08:19:54;15.00;61.80
29031;DHT22;16122;50.236;11.734;2022-11-20T08:22:20;15.00;61.90
29031;DHT22;16122;50.236;11.734;2022-11-20T08:24:46;15.00;61.90
29031;DHT22;16122;50.236;11.734;2022-11-20T08:27:12;15.00;62.00
29031;DHT22;16122;50.236;11.734;2022-11-20T08:29:38;15.00;62.00
29031;DHT22;16122;50.236;11.734;2022-11-20T08:32:04;15.10;62.20
29031;DHT22;16122;50.236;11.734;2022-11-20T08:34:29;15.10;62.20
29031;DHT22;16122;50.236;11.734;2022-11-20T08:36:55;15.10;62.30
29031;DHT22;16122;50.236;11.734;2022-11-20T08:39:21;15.10;62.40
29031;DHT22;16122;50.236;11.734;2022-11-20T08:41:47;15.10;62.40
29031;DHT22;16122;50.236;11.734;2022-11-20T08:44:13;15.20;62.60
29031;DHT22;16122;50.236;11.734;2022-11-20T08:46:40;15.20;62.60
29031;DHT22;16122;50.236;11.734;2022-11-20T08:49:09;15.20;62.60
29031;DHT22;16122;50.236;11.734;2022-11-20T08:51:35;15.20;62.60
29031;DHT22;16122;50.236;11.734;2022-11-20T08:54:02;15.20;62.70
29031;DHT22;16122;50.236;11.734;2022-11-20T08:56:28;15.20;62.60
29031;DHT22;16122;50.236;11.734;2022-11-20T08:58:54;15.20;62.70
29031;DHT22;16122;50.236;11.734;2022-11-20T09:01:21;15.20;62.60
29031;DHT22;16122;50.236;11.734;2022-11-20T09:03:47;15.20;62.60
29031;DHT22;16122;50.236;11.734;2022-11-20T09:06:13;15.20;62.50
29031;DHT22;16122;50.236;11.734;2022-11-20T09:08:39;15.20;62.40
29031;DHT22;16122;50.236;11.734;2022-11-20T09:11:06;15.20;62.50
29031;DHT22;16122;50.236;11.734;2022-11-20T09:13:33;15.20;62.40
29031;DHT22;16122;50.236;11.734;2022-11-20T09:16:05;15.20;62.30
29031;DHT22;16122;50.236;11.734;2022-11-20T09:18:32;15.20;62.40
29031;DHT22;16122;50.236;11.734;2022-11-20T09:20:59;15.20;62.40
29031;DHT22;16122;50.236;11.734;2022-11-20T09:23:26;15.10;62.30
29031;DHT22;16122;50.236;11.734;2022-11-20T09:25:52;15.10;62.40
29031;DHT22;16122;50.236;11.734;2022-11-20T09:28:21;15.10;62.30
29031;DHT22;16122;50.236;11.734;2022-11-20T09:30:47;15.10;61.60
29031;DHT22;16122;50.236;11.734;2022-11-20T09:33:13;15.10;61.80
29031;DHT22;16122;50.236;11.734;2022-11-20T09:35:39;15.10;62.00
29031;DHT22;16122;50.236;11.734;2022-11-20T09:38:07;15.20;62.00
29031;DHT22;16122;50.236;11.734;2022-11-20T09:40:35;15.10;61.70
29031;DHT22;16122;50.236;11.734;2022-11-20T09:51:58;15.20;61.60
29031;DHT22;16122;50.236;11.734;2022-11-20T09:54:30;15.20;61.80
29031;DHT22;16122;50.236;11.734;2022-11-20T09:57:00;15.20;62.00
29031;DHT22;16122;50.236;11.734;2022-11-20T09:59:36;15.20;61.90
29031;DHT22;16122;50.236;11.734;2022-11-20T10:02:15;15.20;62.10
29031;DHT22;16122;50.236;11.734;2022-11-20T10:04:47;15.20;62.20
29031;DHT22;16122;50.236;11.734;2022-11-20T10:07:21;15.30;62.90
29031;DHT22;16122;50.236;11.734;2022-11-20T10:09:54;15.30;64.10
29031;DHT22;16122;50.236;11.734;2022-11-20T10:25:43;15.20;65.10
29031;DHT22;16122;50.236;11.734;2022-11-20T10:31:13;15.20;65.20
29031;DHT22;16122;50.236;11.734;2022-11-20T10:33:42;15.20;65.10
29031;DHT22;16122;50.236;11.734;2022-11-20T10:36:21;15.20;64.90
29031;DHT22;16122;50.236;11.734;2022-11-20T10:39:04;15.20;64.70
29031;DHT22;16122;50.236;11.734;2022-11-20T10:41:40;15.20;64.80
29031;DHT22;16122;50.236;11.734;2022-11-20T10:44:16;15.20;64.50
29031;DHT22;16122;50.236;11.734;2022-11-20T10:47:01;15.20;64.50
29031;DHT22;16122;50.236;11.734;2022-11-20T10:49:27;15.20;64.30
29031;DHT22;16122;50.236;11.734;2022-11-20T11:00:36;15.10;64.30
29031;DHT22;16122;50.236;11.734;2022-11-20T11:03:01;15.10;63.90
29031;DHT22;16122;50.236;11.734;2022-11-20T11:05:54;15.10;63.60
29031;DHT22;16122;50.236;11.734;2022-11-20T11:08:21;15.00;63.60
29031;DHT22;16122;50.236;11.734;2022-11-20T11:11:00;15.00;63.90
29031;DHT22;16122;50.236;11.734;2022-11-20T11:13:29;15.00;63.80
29031;DHT22;16122;50.236;11.734;2022-11-20T11:15:55;15.00;63.90
29031;DHT22;16122;50.236;11.734;2022-11-20T11:20:50;15.00;64.30
29031;DHT22;16122;50.236;11.734;2022-11-20T11:26:04;14.90;63.80
29031;DHT22;16122;50.236;11.734;2022-11-20T11:28:31;14.90;63.70
29031;DHT22;16122;50.236;11.734;2022-11-20T11:30:57;14.90;63.60
29031;DHT22;16122;50.236;11.734;2022-11-20T11:33:28;14.90;63.80
29031;DHT22;16122;50.236;11.734;2022-11-20T11:35:56;14.90;63.70
29031;DHT22;16122;50.236;11.734;2022-11-20T11:38:34;14.90;63.70
29031;DHT22;16122;50.236;11.734;2022-11-20T11:41:01;14.90;63.80
29031;DHT22;16122;50.236;11.734;2022-11-20T11:43:37;14.90;63.70
29031;DHT22;16122;50.236;11.734;2022-11-20T11:49:00;14.90;63.40
29031;DHT22;16122;50.236;11.734;2022-11-20T11:51:31;14.90;62.80
29031;DHT22;16122;50.236;11.734;2022-11-20T11:53:59;14.90;62.60
29031;DHT22;16122;50.236;11.734;2022-11-20T11:56:27;14.80;63.00
29031;DHT22;16122;50.236;11.734;2022-11-20T11:58:56;14.90;63.70
29031;DHT22;16122;50.236;11.734;2022-11-20T12:01:36;14.90;63.70
29031;DHT22;16122;50.236;11.734;2022-11-20T12:06:45;15.00;63.70
29031;DHT22;16122;50.236;11.734;2022-11-20T12:09:13;14.90;63.50
29031;DHT22;16122;50.236;11.734;2022-11-20T12:11:56;15.00;63.50
29031;DHT22;16122;50.236;11.734;2022-11-20T12:14:34;15.00;63.30
29031;DHT22;16122;50.236;11.734;2022-11-20T12:17:01;15.00;63.20
29031;DHT22;16122;50.236;11.734;2022-11-20T12:19:33;15.00;63.10
29031;DHT22;16122;50.236;11.734;2022-11-20T12:30:15;15.00;63.00
29031;DHT22;16122;50.236;11.734;2022-11-20T12:32:51;15.00;63.00
29031;DHT22;16122;50.236;11.734;2022-11-20T12:56:09;15.00;63.50
29031;DHT22;16122;50.236;11.734;2022-11-20T13:01:47;15.00;63.30
29031;DHT22;16122;50.236;11.734;2022-11-20T13:06:51;15.00;64.10
29031;DHT22;16122;50.236;11.734;2022-11-20T13:09:19;15.00;63.60
29031;DHT22;16122;50.236;11.734;2022-11-20T13:12:10;15.00;64.20
29031;DHT22;16122;50.236;11.734;2022-11-20T13:14:47;15.10;63.70
29031;DHT22;16122;50.236;11.734;2022-11-20T13:17:43;15.10;63.90
29031;DHT22;16122;50.236;11.734;2022-11-20T13:20:15;15.10;63.90
29031;DHT22;16122;50.236;11.734;2022-11-20T13:22:52;15.10;63.80
29031;DHT22;16122;50.236;11.734;2022-11-20T13:27:52;15.10;63.70
29031;DHT22;16122;50.236;11.734;2022-11-20T13:30:23;15.10;63.50
29031;DHT22;16122;50.236;11.734;2022-11-20T13:35:29;15.10;63.50
29031;DHT22;16122;50.236;11.734;2022-11-20T13:38:13;15.10;63.20
29031;DHT22;16122;50.236;11.734;2022-11-20T13:41:01;15.10;63.20
29031;DHT22;16122;50.236;11.734;2022-11-20T13:43:48;15.10;63.00
29031;DHT22;16122;50.236;11.734;2022-11-20T13:46:13;15.10;63.00
29031;DHT22;16122;50.236;11.734;2022-11-20T13:48:42;15.10;62.90
29031;DHT22;16122;50.236;11.734;2022-11-20T13:56:47;15.00;62.70
29031;DHT22;16122;50.236;11.734;2022-11-20T14:02:17;15.00;63.10
29031;DHT22;16122;50.236;11.734;2022-11-20T14:04:46;15.00;63.40
29031;DHT22;16122;50.236;11.734;2022-11-20T14:07:13;15.00;63.10
29031;DHT22;16122;50.236;11.734;2022-11-20T14:09:58;15.00;63.30
29031;DHT22;16122;50.236;11.734;2022-11-20T14:12:29;15.00;63.60
29031;DHT22;16122;50.236;11.734;2022-11-20T14:14:56;15.00;63.70
29031;DHT22;16122;50.236;11.734;2022-11-20T14:17:29;15.00;63.70
29031;DHT22;16122;50.236;11.734;2022-11-20T14:19:59;14.90;63.60
29031;DHT22;16122;50.236;11.734;2022-11-20T14:22:26;14.90;63.50
29031;DHT22;16122;50.236;11.734;2022-11-20T14:27:39;14.90;63.80
29031;DHT22;16122;50.236;11.734;2022-11-20T14:30:12;14.90;63.70
29031;DHT22;16122;50.236;11.734;2022-11-20T14:32:39;14.90;63.60
29031;DHT22;16122;50.236;11.734;2022-11-20T14:35:21;14.90;63.50
29031;DHT22;16122;50.236;11.734;2022-11-20T14:37:48;14.90;63.50
29031;DHT22;16122;50.236;11.734;2022-11-20T14:40:32;14.90;63.50
29031;DHT22;16122;50.236;11.734;2022-11-20T14:43:01;14.90;63.20
29031;DHT22;16122;50.236;11.734;2022-11-20T14:45:27;14.80;63.20
29031;DHT22;16122;50.236;11.734;2022-11-20T14:47:57;14.80;63.40
29031;DHT22;16122;50.236;11.734;2022-11-20T14:50:29;14.80;63.80
29031;DHT22;16122;50.236;11.734;2022-11-20T14:52:57;14.80;64.00
29031;DHT22;16122;50.236;11.734;2022-11-20T14:55:40;14.80;63.80
29031;DHT22;16122;50.236;11.734;2022-11-20T14:58:21;14.80;63.80
29031;DHT22;16122;50.236;11.734;2022-11-20T15:01:13;14.90;63.90
29031;DHT22;16122;50.236;11.734;2022-11-20T15:03:40;14.90;63.90
29031;DHT22;16122;50.236;11.734;2022-11-20T15:06:09;14.90;63.90
29031;DHT22;16122;50.236;11.734;2022-11-20T15:08:36;14.90;63.90
29031;DHT22;16122;50.236;11.734;2022-11-20T15:11:02;14.80;63.80
29031;DHT22;16122;50.236;11.734;2022-11-20T15:13:33;14.90;63.90
29031;DHT22;16122;50.236;11.734;2022-11-20T15:16:09;14.80;63.70
29031;DHT22;16122;50.236;11.734;2022-11-20T15:18:42;14.80;63.60
29031;DHT22;16122;50.236;11.734;2022-11-20T15:21:16;14.80;63.80
29031;DHT22;16122;50.236;11.734;2022-11-20T15:23:42;14.90;64.00
29031;DHT22;16122;50.236;11.734;2022-11-20T15:26:10;14.90;64.00
29031;DHT22;16122;50.236;11.734;2022-11-20T15:28:40;14.90;63.90
29031;DHT22;16122;50.236;11.734;2022-11-20T15:31:06;14.90;63.90
29031;DHT22;16122;50.236;11.734;2022-11-20T15:33:33;14.90;63.90
29031;DHT22;16122;50.236;11.734;2022-11-20T15:35:59;14.90;63.90
29031;DHT22;16122;50.236;11.734;2022-11-20T15:38:25;14.90;63.90
29031;DHT22;16122;50.236;11.734;2022-11-20T15:40:51;14.90;63.90
29031;DHT22;16122;50.236;11.734;2022-11-20T15:43:17;14.90;63.90
29031;DHT22;16122;50.236;11.734;2022-11-20T15:45:47;14.90;63.90
29031;DHT22;16122;50.236;11.734;2022-11-20T15:48:19;14.90;63.90
29031;DHT22;16122;50.236;11.734;2022-11-20T15:50:56;14.90;63.90
29031;DHT22;16122;50.236;11.734;2022-11-20T15:53:23;14.90;63.90
29031;DHT22;16122;50.236;11.734;2022-11-20T15:55:49;14.90;63.80
29031;DHT22;16122;50.236;11.734;2022-11-20T15:58:15;14.90;63.80
29031;DHT22;16122;50.236;11.734;2022-11-20T16:00:42;14.90;63.80
29031;DHT22;16122;50.236;11.734;2022-11-20T16:03:13;14.90;64.00
29031;DHT22;16122;50.236;11.734;2022-11-20T16:05:39;14.90;64.10
29031;DHT22;16122;50.236;11.734;2022-11-20T16:08:05;14.90;64.30
29031;DHT22;16122;50.236;11.734;2022-11-20T16:10:31;14.90;64.50
29031;DHT22;16122;50.236;11.734;2022-11-20T16:12:56;14.90;64.70
29031;DHT22;16122;50.236;11.734;2022-11-20T16:15:41;15.00;65.00
29031;DHT22;16122;50.236;11.734;2022-11-20T16:18:17;14.90;65.30
29031;DHT22;16122;50.236;11.734;2022-11-20T16:20:51;14.90;65.80
29031;DHT22;16122;50.236;11.734;2022-11-20T16:23:20;14.90;65.70
29031;DHT22;16122;50.236;11.734;2022-11-20T16:25:51;15.00;66.30
29031;DHT22;16122;50.236;11.734;2022-11-20T16:28:23;15.00;66.10
29031;DHT22;16122;50.236;11.734;2022-11-20T16:30:52;15.00;66.20
29031;DHT22;16122;50.236;11.734;2022-11-20T16:33:18;14.90;66.20
29031;DHT22;16122;50.236;11.734;2022-11-20T16:35:44;15.00;66.30
29031;DHT22;16122;50.236;11.734;2022-11-20T16:38:10;14.90;66.10
29031;DHT22;16122;50.236;11.734;2022-11-20T16:40:36;15.00;66.00
29031;DHT22;16122;50.236;11.734;2022-11-20T16:43:10;14.90;65.80
29031;DHT22;16122;50.236;11.734;2022-11-20T16:45:43;15.00;64.90
29031;DHT22;16122;50.236;11.734;2022-11-20T16:48:14;14.90;65.30
29031;DHT22;16122;50.236;11.734;2022-11-20T16:50:49;15.00;65.50
29031;DHT22;16122;50.236;11.734;2022-11-20T16:53:16;14.90;65.20
29031;DHT22;16122;50.236;11.734;2022-11-20T16:55:43;14.90;65.30
29031;DHT22;16122;50.236;11.734;2022-11-20T16:58:08;14.90;65.50
29031;DHT22;16122;50.236;11.734;2022-11-20T17:00:38;15.00;65.50
29031;DHT22;16122;50.236;11.734;2022-11-20T17:03:05;15.00;65.60
29031;DHT22;16122;50.236;11.734;2022-11-20T17:05:31;15.00;65.40
29031;DHT22;16122;50.236;11.734;2022-11-20T17:07:57;15.00;65.20
29031;DHT22;16122;50.236;11.734;2022-11-20T17:10:23;15.00;65.10